Aviation Digital Data Service (ADDS)

Output produced by TAFs form (2022 UTC 28 June 2016)
found at http://www.aviationweather.gov/adds/tafs/
 
KGFL 281737Z 2818/2918 18009KT P6SM VCSH SCT020 BKN035 
     TEMPO 2821/2901 3SM -TSRA BKN020CB BKN050 
     FM290100 19007KT 5SM -SHRA BR VCTS BKN020CB OVC030 
     FM290400 VRB03KT 3SM BR BKN015 
     FM291300 20004KT P6SM VCSH BKN030